Time;durP1;ratioP1;P1;durP2;ratioP2;P2;SDS_P1;SDS_P2;PMS_P1;PMS_P2;Temp;Humidity;BMP_temperature;BMP_pressure;BME280_temperature;BME280_humidity;BME280_pressure;Samples;Min_cycle;Max_cycle;Signal;HPM_P1;HPM_P2
2023/12/13 00:02:07;;;;;;;1999.90;999.90;;;9.10;99.90;;;;;;4992189;28;20182;-72
2023/12/13 00:04:32;;;;;;;1999.90;999.90;;;9.10;99.90;;;;;;4992225;28;20459;-72
2023/12/13 00:06:58;;;;;;;1999.90;999.90;;;9.20;99.90;;;;;;4992243;28;20870;-72
2023/12/13 00:09:23;;;;;;;1999.90;999.90;;;9.10;99.90;;;;;;4991951;28;20272;-72
2023/12/13 00:11:49;;;;;;;1999.90;999.90;;;9.40;99.90;;;;;;4992143;28;20175;-72
2023/12/13 00:14:15;;;;;;;1999.90;999.90;;;9.20;99.90;;;;;;4992212;28;20186;-72
2023/12/13 00:16:40;;;;;;;1999.90;999.90;;;9.20;99.90;;;;;;4996000;28;20171;-72
2023/12/13 00:19:06;;;;;;;1999.90;999.90;;;9.20;99.90;;;;;;4995644;28;20199;-72
2023/12/13 00:21:32;;;;;;;1999.90;999.90;;;9.30;99.90;;;;;;4996017;28;20187;-71
2023/12/13 00:23:57;;;;;;;1999.90;999.90;;;9.20;99.90;;;;;;4995893;28;20201;-72
2023/12/13 00:26:23;;;;;;;1999.90;999.90;;;9.10;99.90;;;;;;4995808;28;20811;-71
2023/12/13 00:28:50;;;;;;;1999.90;999.90;;;9.10;99.90;;;;;;4995636;28;20218;-72
2023/12/13 00:31:16;;;;;;;1999.90;999.90;;;9.30;99.90;;;;;;4995664;28;20419;-72
2023/12/13 00:33:42;;;;;;;1999.90;999.90;;;9.40;99.90;;;;;;4995639;28;20409;-72
2023/12/13 00:36:08;;;;;;;1999.90;999.90;;;9.40;99.90;;;;;;4995539;28;20438;-72
2023/12/13 00:38:34;;;;;;;1999.90;999.90;;;9.30;99.90;;;;;;4995354;28;20957;-72
2023/12/13 00:41:00;;;;;;;1999.90;999.90;;;9.40;99.90;;;;;;4995504;28;20438;-72
2023/12/13 00:43:26;;;;;;;1999.90;999.90;;;9.30;99.90;;;;;;4995523;28;20416;-72
2023/12/13 00:45:52;;;;;;;1999.90;999.90;;;9.30;99.90;;;;;;4995465;28;20674;-72
2023/12/13 00:48:17;;;;;;;1999.90;999.90;;;9.30;99.90;;;;;;4995138;28;20466;-72
2023/12/13 00:50:43;;;;;;;1999.90;999.90;;;9.20;99.90;;;;;;4995390;28;20191;-72
2023/12/13 00:53:09;;;;;;;1999.90;999.90;;;9.20;99.90;;;;;;4995244;28;20185;-72
2023/12/13 00:55:35;;;;;;;1999.90;999.90;;;9.10;99.90;;;;;;4995492;28;20403;-72
2023/12/13 00:58:01;;;;;;;1999.90;999.90;;;9.10;99.90;;;;;;4995204;28;20418;-71
2023/12/13 01:00:26;;;;;;;1999.90;999.90;;;9.10;99.90;;;;;;4994957;28;20655;-72
2023/12/13 01:02:52;;;;;;;1999.90;999.90;;;9.10;99.90;;;;;;4995117;28;20188;-72
2023/12/13 01:05:18;;;;;;;1999.90;999.90;;;9.10;99.90;;;;;;4995028;28;20650;-72
2023/12/13 01:07:44;;;;;;;1999.90;999.90;;;9.50;99.90;;;;;;4994976;28;20485;-72
2023/12/13 01:10:10;;;;;;;1999.90;999.90;;;9.10;99.90;;;;;;4994743;28;20875;-72
2023/12/13 01:12:36;;;;;;;1999.90;999.90;;;9.10;99.90;;;;;;4994920;28;20413;-72
2023/12/13 01:15:01;;;;;;;1999.90;999.90;;;9.00;99.90;;;;;;4994949;28;20200;-72
2023/12/13 01:17:27;;;;;;;1999.90;999.90;;;9.00;99.90;;;;;;4994862;28;20632;-72
2023/12/13 01:19:52;;;;;;;1999.90;999.90;;;9.00;99.90;;;;;;4994515;28;20205;-72
2023/12/13 01:22:19;;;;;;;1999.90;999.90;;;9.20;99.90;;;;;;4994765;28;20344;-72
2023/12/13 01:24:44;;;;;;;1999.90;999.90;;;9.30;99.90;;;;;;4994816;28;20206;-71
2023/12/13 01:27:10;;;;;;;1999.90;999.90;;;9.50;99.90;;;;;;4993697;28;20986;-71
2023/12/13 01:29:36;;;;;;;1999.90;999.90;;;9.40;99.90;;;;;;4994423;28;20191;-72
2023/12/13 01:32:02;;;;;;;1999.90;999.90;;;9.50;99.90;;;;;;4994584;28;20165;-72
2023/12/13 01:34:28;;;;;;;1999.90;999.90;;;9.40;99.90;;;;;;4994627;28;20716;-72
2023/12/13 01:36:54;;;;;;;1999.90;999.90;;;9.50;99.90;;;;;;4994497;28;20404;-71
2023/12/13 01:39:20;;;;;;;1999.90;999.90;;;9.40;99.90;;;;;;4994146;28;20922;-71
2023/12/13 01:41:45;;;;;;;1999.90;999.90;;;9.20;99.90;;;;;;4994674;28;20196;-71
2023/12/13 01:44:11;;;;;;;1999.90;999.90;;;9.40;99.90;;;;;;4994410;28;20633;-71
2023/12/13 01:46:37;;;;;;;1999.90;999.90;;;9.50;99.90;;;;;;4994365;28;20181;-71
2023/12/13 01:49:05;;;;;;;1999.90;999.90;;;9.50;99.90;;;;;;4993975;28;20220;-70
2023/12/13 01:51:32;;;;;;;1999.90;999.90;;;9.40;99.90;;;;;;4994233;28;20412;-71
2023/12/13 01:53:58;;;;;;;1999.90;999.90;;;9.50;99.90;;;;;;4994238;28;20868;-71
2023/12/13 01:56:24;;;;;;;1999.90;999.90;;;9.60;99.90;;;;;;4994177;28;20457;-71
2023/12/13 01:58:49;;;;;;;1999.90;999.90;;;9.50;99.90;;;;;;4993718;28;20937;-71
2023/12/13 02:01:15;;;;;;;1999.90;999.90;;;9.50;99.90;;;;;;4994109;28;20419;-70
2023/12/13 02:03:41;;;;;;;1999.90;999.90;;;9.60;99.90;;;;;;4994102;28;20190;-71
2023/12/13 02:06:07;;;;;;;1999.90;999.90;;;9.40;99.90;;;;;;4993981;28;20412;-71
2023/12/13 02:08:33;;;;;;;1999.90;999.90;;;9.40;99.90;;;;;;4993510;28;21034;-71
2023/12/13 02:10:59;;;;;;;1999.90;999.90;;;9.30;99.90;;;;;;4993912;28;20260;-71
2023/12/13 02:13:25;;;;;;;1999.90;999.90;;;9.20;99.90;;;;;;4993917;28;20473;-71
2023/12/13 02:15:51;;;;;;;1999.90;999.90;;;9.20;99.90;;;;;;4993800;28;20426;-71
2023/12/13 02:18:17;;;;;;;1999.90;999.90;;;9.10;99.90;;;;;;4993447;28;20435;-70
2023/12/13 02:20:45;;;;;;;1999.90;999.90;;;9.00;99.90;;;;;;4993671;28;20646;-70
2023/12/13 02:23:11;;;;;;;1999.90;999.90;;;9.00;99.90;;;;;;4993585;28;20184;-70
2023/12/13 02:25:58;;;;;;;1999.90;999.90;;;9.00;99.90;;;;;;4993605;28;20424;-71
2023/12/13 02:28:24;;;;;;;1999.90;999.90;;;9.00;99.90;;;;;;4993295;28;20212;-71
2023/12/13 02:30:52;;;;;;;1999.90;999.90;;;9.00;99.90;;;;;;4993545;28;20437;-71
2023/12/13 02:33:21;;;;;;;1999.90;999.90;;;8.90;99.90;;;;;;4993362;28;20761;-71
2023/12/13 02:35:47;;;;;;;1999.90;999.90;;;8.80;99.90;;;;;;4993413;28;20821;-71
2023/12/13 02:38:12;;;;;;;1999.90;999.90;;;8.90;99.90;;;;;;4993028;28;20430;-71
2023/12/13 02:40:38;;;;;;;1999.90;999.90;;;8.90;99.90;;;;;;4993343;28;20176;-71
2023/12/13 02:43:04;;;;;;;1999.90;999.90;;;8.80;99.90;;;;;;4993315;28;20179;-71
2023/12/13 02:45:30;;;;;;;1999.90;999.90;;;8.80;99.90;;;;;;4993291;28;20174;-71
2023/12/13 02:47:56;;;;;;;1999.90;999.90;;;8.80;99.90;;;;;;4992979;28;20897;-71
2023/12/13 02:50:21;;;;;;;1999.90;999.90;;;8.80;99.90;;;;;;4993002;28;20184;-71
2023/12/13 02:52:47;;;;;;;1999.90;999.90;;;8.80;99.90;;;;;;4993283;28;20506;-71
2023/12/13 02:55:13;;;;;;;1999.90;999.90;;;8.90;99.90;;;;;;4993178;28;20179;-71
2023/12/13 02:57:38;;;;;;;1999.90;999.90;;;8.80;99.90;;;;;;4993048;28;20236;-71
2023/12/13 03:00:06;;;;;;;1999.90;999.90;;;9.30;99.90;;;;;;4992682;28;20209;-71
2023/12/13 03:02:32;;;;;;;1999.90;999.90;;;8.80;99.90;;;;;;4993269;28;20179;-72
2023/12/13 03:04:59;;;;;;;1999.90;999.90;;;8.80;99.90;;;;;;4992914;28;20556;-71
2023/12/13 03:07:24;;;;;;;1999.90;999.90;;;8.80;99.90;;;;;;4995480;28;20892;-71
2023/12/13 03:09:51;;;;;;;1999.90;999.90;;;8.90;99.90;;;;;;4999232;28;20838;-71
2023/12/13 03:12:17;;;;;;;1999.90;999.90;;;8.90;99.90;;;;;;4992806;28;20550;-71
2023/12/13 03:14:42;;;;;;;1999.90;999.90;;;8.80;99.90;;;;;;4992867;28;20211;-71
2023/12/13 03:17:08;;;;;;;1999.90;999.90;;;9.00;99.90;;;;;;4992678;28;20652;-71
2023/12/13 03:19:33;;;;;;;1999.90;999.90;;;8.90;99.90;;;;;;4992518;28;20198;-71
2023/12/13 03:21:59;;;;;;;1999.90;999.90;;;8.80;99.90;;;;;;4992684;28;20643;-71
2023/12/13 03:24:25;;;;;;;1999.90;999.90;;;8.90;99.90;;;;;;4992788;28;20562;-71
2023/12/13 03:26:50;;;;;;;1999.90;999.90;;;8.90;99.90;;;;;;4992595;28;20178;-71
2023/12/13 03:29:16;;;;;;;1999.90;999.90;;;8.90;99.90;;;;;;4992436;28;20192;-71
2023/12/13 03:31:42;;;;;;;1999.90;999.90;;;9.00;99.90;;;;;;4992468;28;20170;-71
2023/12/13 03:34:07;;;;;;;1999.90;999.90;;;8.80;99.90;;;;;;4992546;28;20518;-70
2023/12/13 03:36:33;;;;;;;1999.90;999.90;;;9.00;99.90;;;;;;4992941;28;20163;-71
2023/12/13 03:38:59;;;;;;;1999.90;999.90;;;8.50;99.90;;;;;;5001405;28;20198;-72
2023/12/13 03:41:24;;;;;;;1999.90;999.90;;;9.00;99.90;;;;;;5000152;28;20259;-71
2023/12/13 03:43:50;;;;;;;1999.90;999.90;;;9.20;99.90;;;;;;4993126;28;20175;-71
2023/12/13 03:46:15;;;;;;;1999.90;999.90;;;9.10;99.90;;;;;;4992416;28;20717;-71
2023/12/13 03:48:41;;;;;;;1999.90;999.90;;;9.30;99.90;;;;;;4992252;28;20239;-71
2023/12/13 03:51:06;;;;;;;1999.90;999.90;;;9.30;99.90;;;;;;4995696;28;20715;-71
2023/12/13 03:53:32;;;;;;;1999.90;999.90;;;9.30;99.90;;;;;;4996434;28;20225;-71
2023/12/13 03:56:00;;;;;;;1999.90;999.90;;;9.30;99.90;;;;;;4996432;28;20647;-72
2023/12/13 03:58:26;;;;;;;1999.90;999.90;;;;;;;;;;4997407;28;20194;-72
2023/12/13 04:00:51;;;;;;;1999.90;999.90;;;9.30;99.90;;;;;;5002179;28;20426;-71
2023/12/13 04:03:17;;;;;;;1999.90;999.90;;;9.30;99.90;;;;;;5002566;28;20847;-71
2023/12/13 04:05:43;;;;;;;1999.90;999.90;;;9.50;99.90;;;;;;4997296;28;20197;-71
2023/12/13 04:08:08;;;;;;;1999.90;999.90;;;9.40;99.90;;;;;;4995906;28;20204;-71
2023/12/13 04:10:34;;;;;;;1999.90;999.90;;;9.30;99.90;;;;;;4996136;28;20174;-70
2023/12/13 04:13:00;;;;;;;1999.90;999.90;;;9.40;99.90;;;;;;4996187;28;20167;-71
2023/12/13 04:15:25;;;;;;;1999.90;999.90;;;9.30;99.90;;;;;;4995927;28;20567;-71
2023/12/13 04:17:51;;;;;;;1999.90;999.90;;;9.30;99.90;;;;;;4995945;28;20178;-71
2023/12/13 04:20:17;;;;;;;1999.90;999.90;;;9.30;99.90;;;;;;4995819;28;20346;-71
2023/12/13 04:22:43;;;;;;;1999.90;999.90;;;9.30;99.90;;;;;;4995863;28;20183;-71
2023/12/13 04:25:09;;;;;;;1999.90;999.90;;;9.20;99.90;;;;;;4995926;28;20202;-71
2023/12/13 04:27:35;;;;;;;1999.90;999.90;;;9.20;99.90;;;;;;4995758;28;20539;-71
2023/12/13 04:30:01;;;;;;;1999.90;999.90;;;9.20;99.90;;;;;;4995454;28;20195;-71
2023/12/13 04:32:27;;;;;;;1999.90;999.90;;;9.20;99.90;;;;;;4995713;28;20793;-71
2023/12/13 04:34:53;;;;;;;1999.90;999.90;;;9.10;99.90;;;;;;4995843;28;20199;-71
2023/12/13 04:37:19;;;;;;;1999.90;999.90;;;9.20;99.90;;;;;;4995691;28;20415;-71
2023/12/13 04:39:45;;;;;;;1999.90;999.90;;;9.20;99.90;;;;;;4995390;28;20261;-71
2023/12/13 04:42:11;;;;;;;1999.90;999.90;;;9.20;99.90;;;;;;4995586;28;20418;-72
2023/12/13 04:44:37;;;;;;;1999.90;999.90;;;9.10;99.90;;;;;;4995568;28;20179;-72
2023/12/13 04:47:03;;;;;;;1999.90;999.90;;;9.20;99.90;;;;;;4995484;28;20437;-72
2023/12/13 04:49:29;;;;;;;1999.90;999.90;;;9.30;99.90;;;;;;4995255;28;20178;-72
2023/12/13 04:51:55;;;;;;;1999.90;999.90;;;9.20;99.90;;;;;;4995482;28;20197;-72
2023/12/13 04:54:21;;;;;;;1999.90;999.90;;;9.20;99.90;;;;;;4995520;28;21109;-71
2023/12/13 04:56:47;;;;;;;1999.90;999.90;;;9.20;99.90;;;;;;4995304;28;20441;-71
2023/12/13 04:59:13;;;;;;;1999.90;999.90;;;9.10;99.90;;;;;;4994935;28;20493;-72
2023/12/13 05:01:38;;;;;;;1999.90;999.90;;;8.90;99.90;;;;;;4993955;28;20186;-72
2023/12/13 05:04:04;;;;;;;1999.90;999.90;;;8.80;99.90;;;;;;4995202;28;20733;-72
2023/12/13 05:06:29;;;;;;;1999.90;999.90;;;8.70;99.90;;;;;;4995408;28;20170;-72
2023/12/13 05:08:55;;;;;;;1999.90;999.90;;;8.50;99.90;;;;;;4994953;28;20575;-72
2023/12/13 05:11:20;;;;;;;1999.90;999.90;;;8.40;99.90;;;;;;4995208;28;20340;-72
2023/12/13 05:13:46;;;;;;;1999.90;999.90;;;8.30;99.90;;;;;;4995091;28;20690;-72
2023/12/13 05:16:12;;;;;;;1999.90;999.90;;;8.30;99.90;;;;;;4995387;28;20185;-72
2023/12/13 05:18:38;;;;;;;1999.90;999.90;;;8.40;99.90;;;;;;4994805;28;20520;-72
2023/12/13 05:21:04;;;;;;;1999.90;999.90;;;8.40;99.90;;;;;;4995231;28;20186;-71
2023/12/13 05:23:30;;;;;;;1999.90;999.90;;;8.60;99.90;;;;;;4995159;28;20182;-72
2023/12/13 05:25:55;;;;;;;1999.90;999.90;;;8.70;99.90;;;;;;4995037;28;20779;-72
2023/12/13 05:28:21;;;;;;;1999.90;999.90;;;8.70;99.90;;;;;;4994607;28;20210;-72
2023/12/13 05:30:46;;;;;;;1999.90;999.90;;;8.70;99.90;;;;;;4994859;28;20177;-72
2023/12/13 05:33:12;;;;;;;1999.90;999.90;;;8.80;99.90;;;;;;4994727;28;20206;-72
2023/12/13 05:35:38;;;;;;;1999.90;999.90;;;9.10;99.90;;;;;;4994756;28;20229;-72
2023/12/13 05:38:03;;;;;;;1999.90;999.90;;;9.00;99.90;;;;;;4994596;28;20179;-71
2023/12/13 05:40:30;;;;;;;1999.90;999.90;;;9.00;99.90;;;;;;4994334;28;20237;-71
2023/12/13 05:42:56;;;;;;;1999.90;999.90;;;9.00;99.90;;;;;;4994626;28;20773;-72
2023/12/13 05:45:21;;;;;;;1999.90;999.90;;;8.80;99.90;;;;;;4994759;28;20418;-72
2023/12/13 05:47:47;;;;;;;1999.90;999.90;;;8.80;99.90;;;;;;4994777;28;20835;-72
2023/12/13 05:50:12;;;;;;;1999.90;999.90;;;8.80;99.90;;;;;;4994323;28;20677;-72
2023/12/13 05:52:39;;;;;;;1999.90;999.90;;;8.60;99.90;;;;;;4994652;28;20509;-72
2023/12/13 05:55:06;;;;;;;1999.90;999.90;;;8.50;99.90;;;;;;4994472;28;20162;-72
2023/12/13 05:57:31;;;;;;;1999.90;999.90;;;8.50;99.90;;;;;;4994448;28;20916;-71
2023/12/13 05:59:57;;;;;;;1999.90;999.90;;;8.40;99.90;;;;;;4994134;28;20461;-71
2023/12/13 06:02:23;;;;;;;1999.90;999.90;;;8.30;99.90;;;;;;4994566;28;20605;-72
2023/12/13 06:04:48;;;;;;;1999.90;999.90;;;8.20;99.90;;;;;;4994571;28;20171;-72
2023/12/13 06:07:14;;;;;;;1999.90;999.90;;;8.10;99.90;;;;;;4994217;28;20191;-72
2023/12/13 06:09:42;;;;;;;1999.90;999.90;;;8.10;99.90;;;;;;4994284;28;20190;-72
2023/12/13 06:12:08;;;;;;;1999.90;999.90;;;8.00;99.90;;;;;;4993992;28;20169;-72
2023/12/13 06:14:34;;;;;;;1999.90;999.90;;;7.90;99.90;;;;;;4994388;28;20415;-72
2023/12/13 06:16:59;;;;;;;1999.90;999.90;;;7.90;99.90;;;;;;4994367;28;20223;-72
2023/12/13 06:19:29;;;;;;;1999.90;999.90;;;7.90;99.90;;;;;;4993803;28;20194;-72
2023/12/13 06:21:55;;;;;;;1999.90;999.90;;;7.90;99.90;;;;;;4993916;28;20217;-72
2023/12/13 06:24:20;;;;;;;1999.90;999.90;;;7.90;99.90;;;;;;4994005;28;20410;-71
2023/12/13 06:26:46;;;;;;;1999.90;999.90;;;7.90;99.90;;;;;;4994033;28;20170;-72
2023/12/13 06:29:11;;;;;;;1999.90;999.90;;;7.70;99.90;;;;;;4993724;28;20727;-71
2023/12/13 06:31:38;;;;;;;1999.90;999.90;;;7.80;99.90;;;;;;4994202;28;20530;-72
2023/12/13 06:34:03;;;;;;;1999.90;999.90;;;7.60;99.90;;;;;;4993877;28;20170;-72
2023/12/13 06:36:29;;;;;;;1999.90;999.90;;;7.60;99.90;;;;;;4993848;28;20407;-71
2023/12/13 06:38:55;;;;;;;1999.90;999.90;;;7.60;99.90;;;;;;4993361;28;20233;-72
2023/12/13 06:41:21;;;;;;;1999.90;999.90;;;7.60;99.90;;;;;;4993676;28;20692;-72
2023/12/13 06:43:47;;;;;;;1999.90;999.90;;;7.60;99.90;;;;;;4993588;28;20170;-72
2023/12/13 06:46:13;;;;;;;1999.90;999.90;;;7.60;99.90;;;;;;4993569;28;20424;-72
2023/12/13 06:48:38;;;;;;;1999.90;999.90;;;7.80;99.90;;;;;;4993336;28;20864;-71
2023/12/13 06:51:05;;;;;;;1999.90;999.90;;;7.70;99.90;;;;;;4993535;28;20166;-72
2023/12/13 06:53:30;;;;;;;1999.90;999.90;;;7.60;99.90;;;;;;4993455;28;20708;-72
2023/12/13 06:55:57;;;;;;;1999.90;999.90;;;7.50;99.90;;;;;;4993260;28;20409;-72
2023/12/13 06:58:22;;;;;;;1999.90;999.90;;;7.50;99.90;;;;;;4993246;28;20209;-72
2023/12/13 07:00:48;;;;;;;1999.90;999.90;;;7.50;99.90;;;;;;4993219;28;20424;-72
2023/12/13 07:03:13;;;;;;;1999.90;999.90;;;7.40;99.90;;;;;;4993182;28;20704;-72
2023/12/13 07:05:39;;;;;;;1999.90;999.90;;;7.40;99.90;;;;;;4993104;28;20612;-72
2023/12/13 07:08:05;;;;;;;1999.90;999.90;;;7.30;99.90;;;;;;4992894;28;20237;-72
2023/12/13 07:10:30;;;;;;;1999.90;999.90;;;7.40;99.90;;;;;;4992698;28;20286;-72
2023/12/13 07:12:56;;;;;;;1999.90;999.90;;;7.40;99.90;;;;;;4992871;28;21048;-72
2023/12/13 07:15:22;;;;;;;1999.90;999.90;;;7.50;99.90;;;;;;4992919;28;20181;-72
2023/12/13 07:17:47;;;;;;;1999.90;999.90;;;7.50;99.90;;;;;;4992886;28;20186;-72
2023/12/13 07:20:13;;;;;;;1999.90;999.90;;;7.70;99.90;;;;;;4992589;28;20201;-72
2023/12/13 07:22:39;;;;;;;1999.90;999.90;;;7.60;99.90;;;;;;4992841;28;20649;-72
2023/12/13 07:25:06;;;;;;;1999.90;999.90;;;7.60;99.90;;;;;;4991873;28;20205;-71
2023/12/13 07:27:33;;;;;;;1999.90;999.90;;;7.70;99.90;;;;;;4992761;28;20704;-71
2023/12/13 07:29:59;;;;;;;1999.90;999.90;;;7.70;99.90;;;;;;4992455;28;20508;-72
2023/12/13 07:32:24;;;;;;;1999.90;999.90;;;7.80;99.90;;;;;;4992492;28;20445;-72
2023/12/13 07:34:50;;;;;;;1999.90;999.90;;;7.80;99.90;;;;;;4992559;28;20202;-72
2023/12/13 07:37:16;;;;;;;1999.90;999.90;;;7.80;99.90;;;;;;4992996;28;20175;-71
2023/12/13 07:39:42;;;;;;;1999.90;999.90;;;7.80;99.90;;;;;;4992233;28;20193;-71
2023/12/13 07:42:08;;;;;;;1999.90;999.90;;;7.80;99.90;;;;;;4992612;28;20185;-72
2023/12/13 07:44:33;;;;;;;1999.90;999.90;;;7.70;99.90;;;;;;4992531;28;20413;-72
2023/12/13 07:47:02;;;;;;;1999.90;999.90;;;7.70;99.90;;;;;;4990153;28;20186;-71
2023/12/13 07:49:28;;;;;;;1999.90;999.90;;;7.90;99.90;;;;;;4992010;28;20187;-72
2023/12/13 07:51:55;;;;;;;1999.90;999.90;;;7.90;99.90;;;;;;4992296;28;20470;-71
2023/12/13 07:54:21;;;;;;;1999.90;999.90;;;7.80;99.90;;;;;;4992292;28;20413;-72
2023/12/13 07:56:49;;;;;;;1999.90;999.90;;;7.90;99.90;;;;;;4992513;28;20987;-72
2023/12/13 07:59:15;;;;;;;1999.90;999.90;;;7.90;99.90;;;;;;4991977;28;20492;-71
2023/12/13 08:01:41;;;;;;;1999.90;999.90;;;8.00;99.90;;;;;;4992271;28;20980;-72
2023/12/13 08:04:06;;;;;;;1999.90;999.90;;;8.00;99.90;;;;;;4992200;28;20404;-71
2023/12/13 08:06:33;;;;;;;1999.90;999.90;;;8.00;99.90;;;;;;4992211;28;20240;-72
2023/12/13 08:08:58;;;;;;;1999.90;999.90;;;8.00;99.90;;;;;;4991937;28;20260;-72
2023/12/13 08:11:24;;;;;;;1999.90;999.90;;;8.00;99.90;;;;;;4992220;28;20409;-72
2023/12/13 08:13:49;;;;;;;1999.90;999.90;;;7.90;99.90;;;;;;4992192;28;20650;-71
2023/12/13 08:16:15;;;;;;;1999.90;999.90;;;8.00;99.90;;;;;;4992232;28;20201;-72
2023/12/13 08:18:41;;;;;;;1999.90;999.90;;;8.00;99.90;;;;;;4992101;28;20193;-72
2023/12/13 08:21:07;;;;;;;1999.90;999.90;;;8.00;99.90;;;;;;4992210;28;20389;-72
2023/12/13 08:23:33;;;;;;;1999.90;999.90;;;8.00;99.90;;;;;;4989500;28;21029;-72
2023/12/13 08:26:00;;;;;;;1999.90;999.90;;;7.90;99.90;;;;;;4991418;28;20919;-71
2023/12/13 08:28:26;;;;;;;1999.90;999.90;;;7.90;99.90;;;;;;4991876;28;20463;-72
2023/12/13 08:30:52;;;;;;;1999.90;999.90;;;7.90;99.90;;;;;;4991331;28;20417;-72
2023/12/13 08:33:17;;;;;;;1999.90;999.90;;;7.80;99.90;;;;;;4992009;28;20170;-72
2023/12/13 08:35:43;;;;;;;1999.90;999.90;;;7.90;99.90;;;;;;4986715;28;20177;-72
2023/12/13 08:38:08;;;;;;;1999.90;999.90;;;8.00;99.90;;;;;;4995450;28;20622;-72
2023/12/13 08:40:34;;;;;;;1999.90;999.90;;;7.90;99.90;;;;;;4996009;28;20182;-72
2023/12/13 08:43:00;;;;;;;1999.90;999.90;;;8.00;99.90;;;;;;4995704;28;20178;-72
2023/12/13 08:45:28;;;;;;;1999.90;999.90;;;7.90;99.90;;;;;;4995521;28;20174;-71
2023/12/13 08:47:53;;;;;;;1999.90;999.90;;;7.80;99.90;;;;;;4995455;28;20591;-72
2023/12/13 08:50:19;;;;;;;1999.90;999.90;;;7.90;99.90;;;;;;4993875;28;20421;-70
2023/12/13 08:52:45;;;;;;;1999.90;999.90;;;7.90;99.90;;;;;;4990838;28;20185;-70
2023/12/13 08:55:10;;;;;;;1999.90;999.90;;;7.90;99.90;;;;;;4992639;28;20175;-70
2023/12/13 08:57:37;;;;;;;1999.90;999.90;;;8.00;99.90;;;;;;4992466;28;20396;-69
2023/12/13 09:00:06;;;;;;;1999.90;999.90;;;8.00;99.90;;;;;;4991908;28;20224;-70
2023/12/13 09:02:32;;;;;;;1999.90;999.90;;;8.20;99.90;;;;;;4992445;28;20420;-70
2023/12/13 09:04:57;;;;;;;1999.90;999.90;;;8.30;99.90;;;;;;4990422;28;21016;-71
2023/12/13 09:07:23;;;;;;;1999.90;999.90;;;8.40;99.90;;;;;;4991660;28;20236;-71
2023/12/13 09:09:49;;;;;;;1999.90;999.90;;;;;;;;;;5014919;23;20229;-71
2023/12/13 09:12:15;;;;;;;1999.90;999.90;;;8.30;99.90;;;;;;5013253;28;20213;-70
2023/12/13 09:14:41;;;;;;;1999.90;999.90;;;7.80;99.90;;;;;;5014482;28;20448;-70
2023/12/13 09:17:07;;;;;;;1999.90;999.90;;;8.30;99.90;;;;;;5000526;28;20200;-70
2023/12/13 09:19:33;;;;;;;1999.90;999.90;;;8.20;99.90;;;;;;4999478;28;20441;-70
2023/12/13 09:21:59;;;;;;;1999.90;999.90;;;8.30;99.90;;;;;;4994621;28;20181;-70
2023/12/13 09:24:25;;;;;;;1999.90;999.90;;;8.40;99.90;;;;;;4994908;28;20479;-70
2023/12/13 09:26:51;;;;;;;1999.90;999.90;;;8.30;99.90;;;;;;4994886;28;20405;-70
2023/12/13 09:29:16;;;;;;;1999.90;999.90;;;8.30;99.90;;;;;;4994358;28;20217;-70
2023/12/13 09:31:42;;;;;;;1999.90;999.90;;;8.30;99.90;;;;;;4994678;28;20804;-71
2023/12/13 09:34:07;;;;;;;1999.90;999.90;;;8.30;99.90;;;;;;4994490;28;20540;-71
2023/12/13 09:36:33;;;;;;;1999.90;999.90;;;8.30;99.90;;;;;;4994579;28;20169;-70
2023/12/13 09:38:58;;;;;;;1999.90;999.90;;;8.30;99.90;;;;;;4994363;28;20220;-71
2023/12/13 09:41:27;;;;;;;1999.90;999.90;;;8.30;99.90;;;;;;4994490;28;20181;-70
2023/12/13 09:43:54;;;;;;;1999.90;999.90;;;8.20;99.90;;;;;;4994462;28;20178;-70
2023/12/13 09:46:21;;;;;;;1999.90;999.90;;;8.30;99.90;;;;;;4994461;28;20405;-70
2023/12/13 09:48:47;;;;;;;1999.90;999.90;;;8.40;99.90;;;;;;4993106;28;20457;-71
2023/12/13 09:51:13;;;;;;;1999.90;999.90;;;8.60;99.90;;;;;;4994411;28;20432;-70
2023/12/13 09:53:40;;;;;;;1999.90;999.90;;;8.50;99.90;;;;;;4994395;28;20181;-70
2023/12/13 09:56:08;;;;;;;1999.90;999.90;;;8.80;99.90;;;;;;4994332;28;20200;-70
2023/12/13 09:58:34;;;;;;;1999.90;999.90;;;8.80;99.90;;;;;;4993904;28;20647;-70
2023/12/13 10:01:05;;;;;;;1999.90;999.90;;;9.00;99.90;;;;;;4994169;28;20419;-70
2023/12/13 10:03:31;;;;;;;1999.90;999.90;;;9.00;99.90;;;;;;4994012;28;20788;-71
2023/12/13 10:05:59;;;;;;;1999.90;999.90;;;9.20;99.90;;;;;;5034085;23;20489;-71
2023/12/13 10:08:25;;;;;;;1999.90;999.90;;;9.30;99.90;;;;;;4993761;28;20457;-71
2023/12/13 10:10:51;;;;;;;1999.90;999.90;;;9.60;99.90;;;;;;4992831;28;20509;-71
2023/12/13 10:13:17;;;;;;;1999.90;999.90;;;9.40;99.90;;;;;;4993948;28;20168;-70
2023/12/13 10:15:42;;;;;;;1999.90;999.90;;;9.50;99.90;;;;;;4993899;28;20422;-71
2023/12/13 10:18:08;;;;;;;1999.90;999.90;;;9.60;99.90;;;;;;4993730;28;20206;-71
2023/12/13 10:20:34;;;;;;;1999.90;999.90;;;9.70;99.90;;;;;;4994032;28;20179;-71
2023/12/13 10:23:00;;;;;;;1999.90;999.90;;;9.70;99.90;;;;;;4993734;28;20199;-71
2023/12/13 10:25:25;;;;;;;1999.90;999.90;;;9.70;99.90;;;;;;4993646;28;20431;-71
2023/12/13 10:27:53;;;;;;;1999.90;999.90;;;9.90;99.90;;;;;;4993674;28;20482;-71
2023/12/13 10:30:19;;;;;;;1999.90;999.90;;;10.00;99.90;;;;;;4993332;28;20218;-69
2023/12/13 10:32:44;;;;;;;1999.90;999.90;;;10.20;99.90;;;;;;4993616;28;20411;-69
2023/12/13 10:35:10;;;;;;;1999.90;999.90;;;10.10;99.90;;;;;;4993493;28;20512;-69
2023/12/13 10:37:36;;;;;;;1999.90;999.90;;;10.20;99.90;;;;;;4993839;28;20180;-69
2023/12/13 10:40:04;;;;;;;1999.90;999.90;;;10.20;99.90;;;;;;4993405;28;20188;-70
2023/12/13 10:42:31;;;;;;;1999.90;999.90;;;10.30;99.90;;;;;;4992103;28;20425;-71
2023/12/13 10:44:56;;;;;;;1999.90;999.90;;;10.40;99.90;;;;;;4992049;28;20526;-71
2023/12/13 10:47:24;;;;;;;1999.90;999.90;;;10.40;99.90;;;;;;4993276;28;20887;-71
2023/12/13 10:49:52;;;;;;;1999.90;999.90;;;10.40;99.90;;;;;;4993383;28;20651;-71
2023/12/13 10:52:20;;;;;;;1999.90;999.90;;;10.50;99.90;;;;;;4993303;28;20848;-71
2023/12/13 10:54:50;;;;;;;1999.90;999.90;;;10.50;99.90;;;;;;4993224;28;20428;-71
2023/12/13 10:57:16;;;;;;;1999.90;999.90;;;10.50;99.90;;;;;;4993150;28;20397;-71
2023/12/13 10:59:43;;;;;;;1999.90;999.90;;;10.50;99.90;;;;;;4992812;28;20411;-71
2023/12/13 11:02:10;;;;;;;1999.90;999.90;;;10.50;99.90;;;;;;4993088;28;20408;-71
2023/12/13 11:04:37;;;;;;;1999.90;999.90;;;10.50;99.90;;;;;;4992852;28;20931;-70
2023/12/13 11:07:06;;;;;;;1999.90;999.90;;;10.50;99.90;;;;;;4992955;28;20400;-71
2023/12/13 11:09:32;;;;;;;1999.90;999.90;;;10.60;99.90;;;;;;4992837;28;20415;-71
2023/12/13 11:12:09;;;;;;;1999.90;999.90;;;10.50;99.90;;;;;;4993346;28;20487;-71
2023/12/13 11:14:35;;;;;;;1999.90;999.90;;;10.50;99.90;;;;;;4992905;28;20442;-71
2023/12/13 11:17:01;;;;;;;1999.90;999.90;;;10.50;99.90;;;;;;4992932;28;20409;-71
2023/12/13 11:19:28;;;;;;;1999.90;999.90;;;10.60;99.90;;;;;;4992595;28;20408;-71
2023/12/13 11:21:56;;;;;;;1999.90;999.90;;;10.60;99.90;;;;;;4992801;28;20169;-71
2023/12/13 11:24:28;;;;;;;1999.90;999.90;;;10.70;99.90;;;;;;4992692;28;20428;-71
2023/12/13 11:26:58;;;;;;;1999.90;999.90;;;10.70;99.90;;;;;;4991421;28;20428;-71
2023/12/13 11:29:32;;;;;;;1999.90;999.90;;;10.80;99.90;;;;;;4992358;28;20456;-71
2023/12/13 11:32:02;;;;;;;1999.90;999.90;;;10.80;99.90;;;;;;4992691;28;20396;-71
2023/12/13 11:34:34;;;;;;;1999.90;999.90;;;11.00;99.90;;;;;;4991296;28;20970;-71
2023/12/13 11:37:05;;;;;;;1999.90;999.90;;;11.00;99.90;;;;;;4992666;28;20494;-70
2023/12/13 11:39:32;;;;;;;1999.90;999.90;;;11.10;99.90;;;;;;4991125;28;20499;-71
2023/12/13 11:41:58;;;;;;;1999.90;999.90;;;11.40;99.90;;;;;;4992504;28;20405;-71
2023/12/13 11:44:32;;;;;;;1999.90;999.90;;;11.80;99.90;;;;;;4992501;28;20532;-71
2023/12/13 11:47:04;;;;;;;1999.90;999.90;;;12.60;99.90;;;;;;4992720;28;20425;-71
2023/12/13 11:49:30;;;;;;;1999.90;999.90;;;13.50;1.00;;;;;;4992193;28;20416;-71
2023/12/13 11:51:58;;;;;;;1999.90;999.90;;;14.20;99.90;;;;;;4992444;28;20394;-71
2023/12/13 11:54:24;;;;;;;1999.90;999.90;;;14.80;3.00;;;;;;4992614;28;20183;-70
2023/12/13 11:56:50;;;;;;;1999.90;999.90;;;15.60;1.00;;;;;;4992480;28;20390;-71
2023/12/13 11:59:16;;;;;;;1999.90;999.90;;;16.20;1.00;;;;;;4992279;28;20432;-71
2023/12/13 12:01:42;;;;;;;1999.90;999.90;;;16.60;99.90;;;;;;4992399;28;20488;-71
2023/12/13 12:04:08;;;;;;;1999.90;999.90;;;17.10;99.90;;;;;;4992106;28;21021;-71